Time;durP1;ratioP1;P1;durP2;ratioP2;P2;SDS_P1;SDS_P2;PMS_P1;PMS_P2;Temp;Humidity;BMP_temperature;BMP_pressure;BME280_temperature;BME280_humidity;BME280_pressure;Samples;Min_cycle;Max_cycle;Signal;HPM_P1;HPM_P2
2023/03/25 07:50:48;;;;;;;24.50;4.00;;;9.20;99.90;;;;;;4752756;30;20055;-83
2023/03/25 07:53:13;;;;;;;24.20;3.72;;;9.10;99.90;;;;;;4755263;30;20531;-83
2023/03/25 07:55:39;;;;;;;15.88;3.03;;;9.10;99.90;;;;;;4766899;30;20044;-82
2023/03/25 07:58:05;;;;;;;17.70;3.53;;;9.20;99.90;;;;;;4769291;30;20044;-81
2023/03/25 08:00:30;;;;;;;24.40;4.25;;;9.20;99.90;;;;;;4762498;30;20044;-85
2023/03/25 08:03:11;;;;;;;17.52;3.60;;;9.10;99.90;;;;;;4731709;30;20138;-85
2023/03/25 08:05:37;;;;;;;18.95;3.78;;;9.10;99.90;;;;;;4759503;30;20043;-82
2023/03/25 08:08:04;;;;;;;21.25;4.05;;;9.10;99.90;;;;;;4768504;30;20044;-82
2023/03/25 08:10:30;;;;;;;14.18;3.40;;;9.10;99.90;;;;;;4768250;30;20054;-83
2023/03/25 08:12:56;;;;;;;17.05;3.17;;;9.10;99.90;;;;;;4768283;30;20459;-83
2023/03/25 08:15:23;;;;;;;14.98;3.78;;;9.00;99.90;;;;;;4752356;30;20101;-82
2023/03/25 08:17:51;;;;;;;26.58;5.63;;;9.00;99.90;;;;;;4770286;30;20082;-82
2023/03/25 08:20:17;;;;;;;17.67;3.13;;;8.90;99.90;;;;;;4769632;30;20399;-84
2023/03/25 08:22:46;;;;;;;24.90;3.92;;;8.90;99.90;;;;;;4760674;30;20044;-84
2023/03/25 08:25:12;;;;;;;20.67;3.75;;;9.00;99.90;;;;;;4769408;30;20078;-82
2023/03/25 08:27:39;;;;;;;16.75;3.67;;;9.00;99.90;;;;;;4769673;30;20446;-82
2023/03/25 08:30:06;;;;;;;18.73;3.22;;;9.10;99.90;;;;;;4718964;30;20036;-84
2023/03/25 08:32:35;;;;;;;17.83;3.55;;;9.10;99.90;;;;;;4765763;30;20370;-81
2023/03/25 08:35:04;;;;;;;25.77;3.55;;;9.30;99.90;;;;;;4735854;30;20067;-82
2023/03/25 08:37:33;;;;;;;19.20;3.33;;;9.40;99.90;;;;;;4767844;30;20067;-83
2023/03/25 08:40:00;;;;;;;20.27;3.97;;;9.50;99.90;;;;;;4770688;30;20050;-82
2023/03/25 08:42:25;;;;;;;21.42;4.50;;;9.50;99.90;;;;;;4767012;30;20040;-83
2023/03/25 08:44:51;;;;;;;22.55;3.45;;;9.50;99.90;;;;;;4764795;30;20044;-83
2023/03/25 08:47:17;;;;;;;20.55;3.67;;;9.50;99.90;;;;;;4767818;30;20055;-83
2023/03/25 08:49:42;;;;;;;26.00;4.30;;;9.60;99.90;;;;;;4753323;30;20051;-83
2023/03/25 08:52:09;;;;;;;25.45;3.90;;;9.50;99.90;;;;;;4764807;30;20055;-83
2023/03/25 08:54:35;;;;;;;21.42;3.83;;;9.50;99.90;;;;;;4741311;30;20048;-82
2023/03/25 08:57:00;;;;;;;20.92;3.13;;;9.50;99.90;;;;;;4771025;30;20114;-83
2023/03/25 08:59:27;;;;;;;18.63;4.10;;;9.50;99.90;;;;;;4752597;30;20512;-83
2023/03/25 09:01:52;;;;;;;16.25;3.85;;;9.50;99.90;;;;;;4768730;30;20583;-82
2023/03/25 09:04:18;;;;;;;24.48;4.72;;;9.70;99.90;;;;;;4767583;30;20051;-82
2023/03/25 09:06:44;;;;;;;11.00;2.50;;;9.70;99.90;;;;;;4766383;30;20074;-82
2023/03/25 09:09:11;;;;;;;24.27;3.40;;;9.90;99.90;;;;;;4740028;30;20056;-83
2023/03/25 09:11:37;;;;;;;18.75;3.53;;;10.10;99.90;;;;;;4757152;30;20083;-82
2023/03/25 09:14:03;;;;;;;22.35;4.38;;;10.10;99.90;;;;;;4771620;30;20068;-82
2023/03/25 09:16:30;;;;;;;20.05;4.22;;;10.10;99.90;;;;;;4770832;30;20052;-82
2023/03/25 09:18:55;;;;;;;13.63;3.10;;;10.20;99.90;;;;;;4772796;30;20083;-82
2023/03/25 09:21:21;;;;;;;15.55;3.03;;;10.30;99.90;;;;;;4766516;30;20166;-82
2023/03/25 09:23:46;;;;;;;13.52;3.22;;;10.30;99.90;;;;;;4748227;30;20059;-82
2023/03/25 09:26:12;;;;;;;16.75;3.47;;;10.40;99.90;;;;;;4770813;30;20055;-82
2023/03/25 09:28:37;;;;;;;23.10;4.85;;;10.40;99.90;;;;;;4753855;30;20052;-82
2023/03/25 09:31:03;;;;;;;14.98;3.45;;;10.60;99.90;;;;;;4761975;30;20054;-82
2023/03/25 09:33:29;;;;;;;19.55;3.17;;;10.50;99.90;;;;;;4751733;30;20061;-82
2023/03/25 09:35:54;;;;;;;21.40;4.65;;;10.40;99.90;;;;;;4765026;30;20125;-82
2023/03/25 09:38:21;;;;;;;20.73;3.47;;;10.40;99.90;;;;;;4768364;30;20048;-82
2023/03/25 09:40:47;;;;;;;17.33;3.58;;;10.30;99.90;;;;;;4766926;30;20564;-83
2023/03/25 09:43:28;;;;;;;15.57;4.10;;;10.10;99.90;;;;;;4766043;30;20127;-83
2023/03/25 09:45:55;;;;;;;22.08;3.15;;;10.20;99.90;;;;;;4736300;30;20048;-82
2023/03/25 09:48:38;;;;;;;21.23;3.63;;;10.30;99.90;;;;;;4761756;30;20048;-84
2023/03/25 09:51:06;;;;;;;16.25;2.85;;;10.30;99.90;;;;;;4757314;30;20730;-84
2023/03/25 09:53:51;;;;;;;16.27;2.38;;;10.30;99.90;;;;;;4757614;30;20040;-83
2023/03/25 09:56:23;;;;;;;17.15;3.85;;;10.30;99.90;;;;;;4759569;30;20064;-83
2023/03/25 09:58:51;;;;;;;16.98;3.22;;;10.40;99.90;;;;;;4760518;30;20051;-83
2023/03/25 10:01:50;;;;;;;19.17;2.60;;;10.50;99.90;;;;;;4758858;30;20048;-84
2023/03/25 10:04:37;;;;;;;25.75;3.95;;;10.60;99.90;;;;;;4759155;30;20044;-84
2023/03/25 10:07:28;;;;;;;;;;;10.60;99.90;;;;;;4759575;30;20166;-83
2023/03/25 10:10:05;;;;;;;16.50;3.42;;;10.60;99.90;;;;;;4745368;30;19997;-82
2023/03/25 10:12:46;;;;;;;20.35;3.63;;;10.70;99.90;;;;;;4749407;30;20111;-82
2023/03/25 10:15:29;;;;;;;22.08;4.03;;;10.70;99.90;;;;;;4765397;30;20090;-82
2023/03/25 10:18:07;;;;;;;21.45;4.00;;;10.80;99.90;;;;;;4764541;30;20052;-82
2023/03/25 10:21:01;;;;;;;16.02;3.33;;;10.90;99.90;;;;;;4749634;30;20059;-84
2023/03/25 10:23:50;;;;;;;17.83;3.03;;;10.80;99.90;;;;;;4768644;30;20044;-82
2023/03/25 10:26:24;;;;;;;10.75;2.63;;;10.70;99.90;;;;;;4762870;30;20055;-84
2023/03/25 10:29:12;;;;;;;21.08;4.82;;;10.60;99.90;;;;;;4764645;30;20036;-83
2023/03/25 10:31:48;;;;;;;15.10;2.60;;;10.60;99.90;;;;;;4735680;30;20040;-83
2023/03/25 10:34:17;;;;;;;22.38;3.72;;;10.60;99.90;;;;;;4763475;30;20056;-83
2023/03/25 10:36:53;;;;;;;19.10;3.80;;;10.50;99.90;;;;;;4766217;30;20040;-82
2023/03/25 10:39:21;;;;;;;18.55;3.75;;;10.50;99.90;;;;;;4765686;30;20056;-82
2023/03/25 10:42:02;;;;;;;15.15;3.42;;;10.50;99.90;;;;;;4749981;30;20052;-84
2023/03/25 10:44:29;;;;;;;13.52;3.05;;;10.60;99.90;;;;;;4761433;30;20040;-83
2023/03/25 10:47:10;;;;;;;21.38;4.10;;;10.80;99.90;;;;;;4761313;30;20164;-83
2023/03/25 10:49:38;;;;;;;15.55;2.85;;;10.90;99.90;;;;;;4759942;30;20151;-83
2023/03/25 10:52:04;;;;;;;15.93;2.92;;;10.90;99.90;;;;;;4762674;30;20499;-82
2023/03/25 10:54:38;;;;;;;18.38;3.63;;;11.00;99.90;;;;;;4763038;30;20044;-84
2023/03/25 10:57:18;;;;;;;17.08;3.20;;;11.20;99.90;;;;;;4730149;30;20729;-84
2023/03/25 10:59:51;;;;;;;17.30;2.85;;;11.00;99.90;;;;;;4763738;30;20101;-85
2023/03/25 11:02:19;;;;;;;15.93;3.25;;;11.10;99.90;;;;;;4749251;30;20063;-84
2023/03/25 11:04:47;;;;;;;17.13;3.47;;;11.10;99.90;;;;;;4747541;30;20044;-85
2023/03/25 11:07:38;;;;;;;21.25;3.08;;;11.10;99.90;;;;;;4762533;30;20044;-86
2023/03/25 11:10:27;;;;;;;16.27;3.40;;;11.20;99.90;;;;;;4764001;30;20048;-86
2023/03/25 11:12:53;;;;;;;25.52;4.10;;;11.20;99.90;;;;;;4747472;30;20523;-86
2023/03/25 11:15:35;;;;;;;15.05;3.55;;;11.20;99.90;;;;;;4763822;30;20108;-86
2023/03/25 11:18:13;;;;;;;17.08;4.05;;;11.30;99.90;;;;;;4752561;30;20097;-84
2023/03/25 11:20:53;;;;;;;10.48;2.10;;;11.40;99.90;;;;;;4766827;30;20054;-84
2023/03/25 11:23:33;;;;;;;17.02;3.42;;;11.50;99.90;;;;;;4751353;30;20048;-85
2023/03/25 11:26:12;;;;;;;18.30;3.50;;;11.60;99.90;;;;;;4763527;30;20048;-85
2023/03/25 11:29:28;;;;;;;14.18;3.80;;;11.70;99.90;;;;;;4763467;30;20039;-85
2023/03/25 11:32:05;;;;;;;16.40;3.50;;;11.80;99.90;;;;;;4675936;30;20065;-84
2023/03/25 11:34:49;;;;;;;16.63;3.40;;;12.10;99.90;;;;;;4742284;30;20131;-85
2023/03/25 11:37:18;;;;;;;14.25;3.10;;;12.20;99.90;;;;;;4761457;30;20048;-84
2023/03/25 11:39:55;;;;;;;16.10;2.83;;;12.50;99.90;;;;;;4734671;30;20093;-84
2023/03/25 11:42:31;;;;;;;11.93;2.67;;;12.70;99.90;;;;;;4746417;30;20527;-83
2023/03/25 11:44:58;;;;;;;;;;;12.70;99.90;;;;;;4766835;30;20112;-84
2023/03/25 11:47:29;;;;;;;12.23;2.30;;;12.30;99.90;;;;;;4734827;30;20715;-83
2023/03/25 11:49:56;;;;;;;14.20;3.25;;;13.10;99.90;;;;;;4747808;30;20144;-84
2023/03/25 11:52:43;;;;;;;16.95;2.47;;;13.20;99.90;;;;;;4762962;30;20048;-84
2023/03/25 11:55:17;;;;;;;16.48;3.28;;;13.10;99.90;;;;;;4763737;30;20164;-84
2023/03/25 11:57:48;;;;;;;14.95;3.13;;;13.40;99.90;;;;;;4762217;30;20121;-84
2023/03/25 12:00:32;;;;;;;15.40;3.00;;;13.10;99.90;;;;;;4766229;30;20566;-84
2023/03/25 12:02:59;;;;;;;19.02;2.88;;;13.10;99.90;;;;;;4764103;30;20044;-85
2023/03/25 12:05:25;;;;;;;13.77;2.40;;;13.10;99.90;;;;;;4754519;30;20131;-84
2023/03/25 12:07:59;;;;;;;13.80;2.25;;;13.10;99.90;;;;;;4764594;30;20131;-84
2023/03/25 12:10:31;;;;;;;12.38;2.72;;;12.90;99.90;;;;;;4763048;30;20040;-83
2023/03/25 12:13:11;;;;;;;14.50;2.78;;;12.80;99.90;;;;;;4765400;30;20060;-84
2023/03/25 12:15:43;;;;;;;13.13;2.42;;;12.20;99.90;;;;;;4758748;30;20044;-84
2023/03/25 12:18:33;;;;;;;12.10;2.17;;;12.80;99.90;;;;;;4763083;30;20181;-84
2023/03/25 12:21:37;;;;;;;10.57;2.88;;;12.80;99.90;;;;;;4762865;30;20044;-84
2023/03/25 12:24:24;;;;;;;15.25;3.00;;;12.70;99.90;;;;;;4746868;30;20184;-83
2023/03/25 12:26:50;;;;;;;13.77;2.65;;;12.80;99.90;;;;;;4759792;29;20119;-84
2023/03/25 12:29:50;;;;;;;12.73;2.55;;;12.90;99.90;;;;;;4755363;30;20538;-85
2023/03/25 12:32:55;;;;;;;13.50;2.95;;;13.00;99.90;;;;;;4745369;30;20203;-85
2023/03/25 12:35:39;;;;;;;14.43;3.65;;;12.90;99.90;;;;;;4742467;30;20118;-84
2023/03/25 12:38:15;;;;;;;12.25;2.53;;;13.00;99.90;;;;;;4743630;30;20056;-86
2023/03/25 12:41:00;;;;;;;12.82;2.47;;;13.70;99.90;;;;;;4743666;30;20135;-84
2023/03/25 12:44:19;;;;;;;14.95;2.67;;;13.00;99.90;;;;;;4728960;30;20072;-84
2023/03/25 12:46:52;;;;;;;13.07;3.22;;;13.00;99.90;;;;;;4741243;30;20135;-84
2023/03/25 12:49:53;;;;;;;12.48;3.10;;;12.80;99.90;;;;;;4715453;30;20086;-84
2023/03/25 12:52:25;;;;;;;14.13;2.95;;;12.80;99.90;;;;;;4760704;30;20046;-85
2023/03/25 12:55:19;;;;;;;12.73;2.42;;;12.80;99.90;;;;;;4759432;30;20071;-84
2023/03/25 12:58:30;;;;;;;14.30;2.22;;;12.90;99.90;;;;;;4756652;30;20047;-86
2023/03/25 13:01:46;;;;;;;12.57;2.13;;;12.90;99.90;;;;;;4757164;30;20052;-86
2023/03/25 13:04:50;;;;;;;10.90;2.63;;;13.00;99.90;;;;;;4711544;30;20157;-86
2023/03/25 13:07:22;;;;;;;16.63;3.53;;;13.10;99.90;;;;;;4760724;30;20452;-85
2023/03/25 13:10:16;;;;;;;16.05;2.90;;;13.10;99.90;;;;;;4758815;30;20739;-85
2023/03/25 13:12:55;;;;;;;11.27;2.72;;;13.00;99.90;;;;;;4730325;30;20052;-85
2023/03/25 13:15:59;;;;;;;13.10;2.28;;;12.80;99.90;;;;;;4745185;30;20060;-85
2023/03/25 13:18:34;;;;;;;14.88;2.78;;;12.70;99.90;;;;;;4744991;30;20044;-84
2023/03/25 13:21:16;;;;;;;11.73;2.93;;;12.40;99.90;;;;;;4757328;30;20048;-86
2023/03/25 13:24:13;;;;;;;9.25;2.30;;;13.00;99.90;;;;;;4757569;30;20330;-84
2023/03/25 13:26:49;;;;;;;11.85;3.30;;;13.10;99.90;;;;;;4743055;30;20068;-86
2023/03/25 13:29:34;;;;;;;10.05;2.72;;;13.30;99.90;;;;;;4758979;30;20044;-84
2023/03/25 13:32:05;;;;;;;13.15;2.20;;;12.90;99.90;;;;;;4759308;30;20059;-85
2023/03/25 13:34:55;;;;;;;17.13;1.98;;;12.80;99.90;;;;;;4759911;30;20135;-85
2023/03/25 13:37:35;;;;;;;14.45;2.50;;;12.80;99.90;;;;;;4756291;30;20447;-85
2023/03/25 13:40:13;;;;;;;11.60;2.65;;;12.80;99.90;;;;;;4758444;30;20507;-84
2023/03/25 13:42:42;;;;;;;11.30;2.08;;;13.00;99.90;;;;;;4743583;30;20555;-84
2023/03/25 13:45:15;;;;;;;11.90;2.55;;;13.20;99.90;;;;;;4758334;30;20479;-84
2023/03/25 13:47:46;;;;;;;12.70;2.05;;;13.30;99.90;;;;;;4744704;30;20052;-84
2023/03/25 13:50:28;;;;;;;15.80;3.63;;;13.20;99.90;;;;;;4758443;30;20106;-82
2023/03/25 13:53:20;;;;;;;13.93;3.33;;;12.90;99.90;;;;;;4757808;30;20440;-84
2023/03/25 13:56:01;;;;;;;13.43;3.58;;;12.70;99.90;;;;;;4715333;30;20087;-84
2023/03/25 13:59:04;;;;;;;11.93;2.70;;;12.60;99.90;;;;;;4757396;30;20059;-85
2023/03/25 14:01:44;;;;;;;14.23;3.00;;;12.40;99.90;;;;;;4742778;30;20080;-85
2023/03/25 14:04:46;;;;;;;15.20;3.85;;;12.30;99.90;;;;;;4758762;30;20131;-85
2023/03/25 14:07:33;;;;;;;7.55;1.85;;;12.30;99.90;;;;;;4755391;30;20048;-84
2023/03/25 14:10:27;;;;;;;13.32;2.80;;;12.10;99.90;;;;;;4742539;30;20060;-85
2023/03/25 14:13:03;;;;;;;14.43;2.83;;;11.80;99.90;;;;;;4752486;30;20076;-85
2023/03/25 14:15:33;;;;;;;13.38;3.15;;;11.70;99.90;;;;;;4742144;30;20048;-85
2023/03/25 14:18:01;;;;;;;14.10;2.53;;;11.30;99.90;;;;;;4745122;30;20056;-84
2023/03/25 14:20:33;;;;;;;17.55;3.30;;;11.20;99.90;;;;;;4758123;30;20438;-85
2023/03/25 14:23:04;;;;;;;13.00;2.50;;;11.10;99.90;;;;;;4758124;30;20078;-84
2023/03/25 14:25:41;;;;;;;15.95;2.88;;;10.80;99.90;;;;;;4755503;30;20047;-85
2023/03/25 14:28:11;;;;;;;4.85;0.70;;;10.60;99.90;;;;;;4757999;30;20095;-86
2023/03/25 14:30:37;;;;;;;5.07;1.00;;;9.90;99.90;;;;;;4759349;30;20044;-85
2023/03/25 14:33:02;;;;;;;5.97;1.08;;;9.80;99.90;;;;;;4758539;30;20079;-84
2023/03/25 14:35:37;;;;;;;6.55;0.98;;;9.60;99.90;;;;;;4756962;30;20048;-86
2023/03/25 14:38:06;;;;;;;7.90;1.63;;;9.40;99.90;;;;;;4758849;30;20056;-85
2023/03/25 14:40:37;;;;;;;4.78;1.20;;;9.40;99.90;;;;;;4757347;29;20871;-84
2023/03/25 14:43:38;;;;;;;11.18;1.90;;;9.30;99.90;;;;;;4742437;30;20048;-84
2023/03/25 14:46:10;;;;;;;11.32;1.55;;;9.40;99.90;;;;;;4756773;30;20714;-84
2023/03/25 14:49:03;;;;;;;6.63;1.60;;;9.40;99.90;;;;;;4742666;30;20054;-85
2023/03/25 14:51:28;;;;;;;7.78;1.23;;;9.40;99.90;;;;;;4743741;30;20051;-86
2023/03/25 14:54:08;;;;;;;7.15;1.58;;;9.40;99.90;;;;;;4756050;30;20056;-84
2023/03/25 14:56:42;;;;;;;9.63;1.35;;;9.50;99.90;;;;;;4756720;30;20044;-84
2023/03/25 14:59:20;;;;;;;11.77;2.50;;;9.60;99.90;;;;;;4758062;30;20463;-85
2023/03/25 15:01:46;;;;;;;4.65;1.33;;;9.60;99.90;;;;;;4757313;30;20036;-83
2023/03/25 15:04:22;;;;;;;5.70;1.33;;;9.70;99.90;;;;;;4756310;30;20044;-84
2023/03/25 15:06:48;;;;;;;5.50;1.20;;;9.90;99.90;;;;;;4756958;30;20036;-83
2023/03/25 15:09:16;;;;;;;9.88;1.38;;;10.00;99.90;;;;;;4758950;30;20048;-83
2023/03/25 15:11:51;;;;;;;7.95;1.05;;;10.10;99.90;;;;;;4746048;30;20598;-86
2023/03/25 15:14:25;;;;;;;11.05;1.25;;;10.10;99.90;;;;;;4762724;29;20044;-83
2023/03/25 15:16:58;;;;;;;9.63;1.90;;;10.10;99.90;;;;;;4761426;30;20052;-82
2023/03/25 15:19:24;;;;;;;10.82;1.17;;;10.00;99.90;;;;;;4762631;30;20044;-83
2023/03/25 15:22:09;;;;;;;9.13;1.70;;;9.90;99.90;;;;;;4760984;30;20543;-84
2023/03/25 15:24:47;;;;;;;4.95;1.08;;;9.90;99.90;;;;;;4748414;30;20055;-85
2023/03/25 15:27:47;;;;;;;9.98;1.83;;;9.80;99.90;;;;;;4762780;30;20068;-83
2023/03/25 15:30:28;;;;;;;6.53;1.48;;;9.80;99.90;;;;;;4746272;30;20056;-83
2023/03/25 15:33:35;;;;;;;9.88;1.27;;;9.70;99.90;;;;;;4761242;30;20048;-82
2023/03/25 15:36:19;;;;;;;7.05;1.40;;;9.60;99.90;;;;;;4717051;30;20507;-83
2023/03/25 15:39:00;;;;;;;8.77;1.63;;;9.60;99.90;;;;;;4745135;30;20907;-83
2023/03/25 15:41:32;;;;;;;8.10;1.73;;;9.60;99.90;;;;;;4760241;30;20133;-83
2023/03/25 15:44:28;;;;;;;10.63;1.35;;;9.60;99.90;;;;;;4759799;30;20052;-83
2023/03/25 15:47:00;;;;;;;9.48;1.35;;;9.70;99.90;;;;;;4746092;30;20101;-83
2023/03/25 15:49:38;;;;;;;6.85;1.25;;;9.80;99.90;;;;;;4746866;30;20076;-84
2023/03/25 15:52:18;;;;;;;7.18;1.48;;;9.90;99.90;;;;;;4758248;30;20052;-84
2023/03/25 15:55:04;;;;;;;6.18;0.80;;;10.00;99.90;;;;;;4742050;30;20056;-84
2023/03/25 15:57:57;;;;;;;2.58;0.40;;;10.10;99.90;;;;;;4743110;30;20057;-84
2023/03/25 16:00:31;;;;;;;2.20;0.43;;;10.10;99.90;;;;;;4743319;30;20531;-84
2023/03/25 16:03:05;;;;;;;4.40;1.00;;;10.10;99.90;;;;;;4728593;30;20079;-83
2023/03/25 16:05:34;;;;;;;5.13;0.75;;;10.10;99.90;;;;;;4745224;30;20036;-82
2023/03/25 16:08:24;;;;;;;4.38;0.70;;;10.10;99.90;;;;;;4745328;30;20576;-82
2023/03/25 16:11:24;;;;;;;3.28;0.70;;;10.00;99.90;;;;;;4727860;30;20193;-86
2023/03/25 16:14:12;;;;;;;7.18;0.73;;;10.70;99.90;;;;;;4716299;30;20061;-85
2023/03/25 16:16:56;;;;;;;8.45;0.80;;;10.00;99.90;;;;;;4743502;30;20087;-85
2023/03/25 16:19:50;;;;;;;5.97;0.88;;;9.90;99.90;;;;;;4743717;30;20107;-86
2023/03/25 16:22:36;;;;;;;5.88;1.58;;;9.90;99.90;;;;;;4728282;30;20126;-85
2023/03/25 16:25:13;;;;;;;4.72;1.02;;;9.90;99.90;;;;;;4728970;30;20041;-84
2023/03/25 16:27:44;;;;;;;6.07;0.88;;;9.80;99.90;;;;;;4729843;30;20114;-85
2023/03/25 16:30:38;;;;;;;8.95;1.63;;;9.80;99.90;;;;;;4743908;30;20159;-82
2023/03/25 16:33:06;;;;;;;6.80;1.23;;;9.80;99.90;;;;;;4742772;30;20402;-82
2023/03/25 16:35:42;;;;;;;6.63;0.98;;;9.80;99.90;;;;;;4725389;30;20056;-83
2023/03/25 16:38:12;;;;;;;;;;;9.80;99.90;;;;;;4743186;30;20052;-82
2023/03/25 16:40:40;;;;;;;5.47;0.95;;;9.80;99.90;;;;;;4742724;30;20032;-81
2023/03/25 16:43:22;;;;;;;6.45;0.80;;;9.70;99.90;;;;;;4743386;30;20110;-81
2023/03/25 16:45:49;;;;;;;6.95;1.30;;;9.80;99.90;;;;;;4747081;30;20067;-81
2023/03/25 16:48:23;;;;;;;5.30;0.98;;;9.70;99.90;;;;;;4744147;30;20083;-83
2023/03/25 16:50:52;;;;;;;7.75;1.55;;;9.70;99.90;;;;;;4730682;30;20496;-83
2023/03/25 16:53:21;;;;;;;12.20;1.27;;;9.70;99.90;;;;;;4753135;30;20040;-83
2023/03/25 16:55:49;;;;;;;8.57;1.20;;;9.70;99.90;;;;;;4742581;30;20048;-81
2023/03/25 16:58:44;;;;;;;5.53;0.80;;;9.70;99.90;;;;;;4762873;30;20171;-82
2023/03/25 17:01:10;;;;;;;7.45;1.27;;;9.70;99.90;;;;;;4746273;30;20062;-83
2023/03/25 17:04:17;;;;;;;9.95;1.65;;;9.60;99.90;;;;;;4745854;30;20045;-82
2023/03/25 17:07:26;;;;;;;11.45;1.83;;;9.70;99.90;;;;;;4745995;30;20067;-82
2023/03/25 17:09:57;;;;;;;7.55;1.50;;;8.80;99.90;;;;;;4745740;30;20648;-82
2023/03/25 17:12:24;;;;;;;12.60;1.55;;;9.60;99.90;;;;;;4759333;30;20504;-82
2023/03/25 17:14:55;;;;;;;6.55;1.27;;;9.60;99.90;;;;;;4760761;30;20048;-81
2023/03/25 17:17:40;;;;;;;9.65;2.35;;;9.50;99.90;;;;;;4762299;30;20052;-82
2023/03/25 17:20:17;;;;;;;9.25;1.45;;;9.50;99.90;;;;;;4742960;30;20044;-82
2023/03/25 17:23:01;;;;;;;8.23;1.40;;;9.80;99.90;;;;;;4762371;30;20071;-82
2023/03/25 17:25:34;;;;;;;11.80;1.35;;;9.50;99.90;;;;;;4760517;30;20097;-81
2023/03/25 17:28:19;;;;;;;18.70;2.03;;;9.50;99.90;;;;;;4759888;30;21899;-81
2023/03/25 17:30:45;;;;;;;9.52;1.85;;;9.50;99.90;;;;;;4745224;30;20454;-83
2023/03/25 17:33:24;;;;;;;11.13;1.67;;;9.50;99.90;;;;;;4761285;30;20058;-83
2023/03/25 17:35:53;;;;;;;11.43;1.77;;;9.50;99.90;;;;;;4759320;30;20066;-81
2023/03/25 17:38:37;;;;;;;14.82;2.25;;;9.50;99.90;;;;;;4759065;30;20052;-82
2023/03/25 17:41:05;;;;;;;10.40;1.65;;;9.50;99.90;;;;;;4761271;30;20174;-81
2023/03/25 17:43:34;;;;;;;9.85;1.60;;;9.40;99.90;;;;;;4762100;30;20052;-82
2023/03/25 17:46:00;;;;;;;10.07;1.42;;;9.40;99.90;;;;;;4761919;30;20083;-82
2023/03/25 17:48:26;;;;;;;10.05;1.40;;;9.40;99.90;;;;;;4761542;30;20085;-82
2023/03/25 17:50:54;;;;;;;10.43;1.80;;;9.40;99.90;;;;;;4760517;30;20052;-82
2023/03/25 17:53:20;;;;;;;10.80;1.75;;;9.40;99.90;;;;;;4761608;30;20048;-83
2023/03/25 17:55:48;;;;;;;10.50;2.08;;;9.30;99.90;;;;;;4760367;30;20044;-82
2023/03/25 17:58:15;;;;;;;10.68;2.10;;;9.40;99.90;;;;;;4759278;30;20052;-82
2023/03/25 18:00:41;;;;;;;11.68;1.50;;;9.30;99.90;;;;;;4759832;30;20048;-82
2023/03/25 18:03:18;;;;;;;11.65;1.88;;;9.30;99.90;;;;;;4758759;30;20056;-82
2023/03/25 18:05:49;;;;;;;8.38;1.63;;;9.30;99.90;;;;;;4744604;30;20043;-82
2023/03/25 18:08:16;;;;;;;7.45;1.30;;;9.20;99.90;;;;;;4746439;30;20044;-82
2023/03/25 18:10:41;;;;;;;13.32;1.52;;;9.20;99.90;;;;;;4760135;30;20059;-82
2023/03/25 18:13:08;;;;;;;11.23;1.75;;;9.20;99.90;;;;;;4729763;30;20044;-82
2023/03/25 18:15:35;;;;;;;10.77;1.42;;;9.20;99.90;;;;;;4742256;30;20082;-82
2023/03/25 18:18:01;;;;;;;10.07;1.52;;;9.20;99.90;;;;;;4760391;30;20048;-82
2023/03/25 18:20:34;;;;;;;8.75;1.73;;;9.20;99.90;;;;;;4761860;30;20048;-83
2023/03/25 18:23:00;;;;;;;8.77;1.27;;;9.10;99.90;;;;;;4760500;30;20055;-83
2023/03/25 18:25:26;;;;;;;11.07;1.75;;;9.10;99.90;;;;;;4760753;30;20100;-83
2023/03/25 18:27:55;;;;;;;11.90;1.52;;;9.10;99.90;;;;;;4758212;30;20121;-83
2023/03/25 18:30:25;;;;;;;6.53;1.65;;;9.10;99.90;;;;;;4759811;30;20063;-83
2023/03/25 18:32:51;;;;;;;9.45;1.58;;;9.10;99.90;;;;;;4760621;30;20071;-83
2023/03/25 18:35:17;;;;;;;7.38;1.52;;;9.10;99.90;;;;;;4758032;30;20131;-84
2023/03/25 18:37:42;;;;;;;10.48;1.20;;;9.10;99.90;;;;;;4760763;30;20063;-82
2023/03/25 18:40:26;;;;;;;9.27;1.35;;;9.00;99.90;;;;;;4761863;30;20041;-82
2023/03/25 18:42:52;;;;;;;8.18;1.20;;;9.10;99.90;;;;;;4747959;30;20071;-82
2023/03/25 18:45:19;;;;;;;10.40;1.02;;;9.00;99.90;;;;;;4762328;30;20055;-82
2023/03/25 18:47:45;;;;;;;9.23;3.30;;;9.00;99.90;;;;;;4750914;30;21115;-80
2023/03/25 18:50:16;;;;;;;13.23;2.22;;;9.10;99.90;;;;;;4765869;30;20063;-81
2023/03/25 18:52:42;;;;;;;8.73;2.25;;;9.00;99.90;;;;;;4766327;30;20055;-81
2023/03/25 18:55:08;;;;;;;10.45;1.40;;;9.00;99.90;;;;;;4768430;30;20044;-81
2023/03/25 18:57:34;;;;;;;12.55;2.53;;;9.00;99.90;;;;;;4768740;30;20106;-82
2023/03/25 19:00:00;;;;;;;12.68;2.00;;;8.90;99.90;;;;;;4750164;30;20040;-81
2023/03/25 19:02:25;;;;;;;9.85;1.80;;;9.00;99.90;;;;;;4766661;30;20043;-81
2023/03/25 19:04:51;;;;;;;13.10;1.65;;;8.90;99.90;;;;;;4737160;30;20089;-81
2023/03/25 19:07:16;;;;;;;10.00;1.40;;;9.00;99.90;;;;;;4766192;30;20051;-81
2023/03/25 19:09:42;;;;;;;19.08;3.00;;;8.90;99.90;;;;;;4748752;30;20044;-82
2023/03/25 19:12:08;;;;;;;12.23;1.73;;;8.90;99.90;;;;;;4749309;30;20068;-81
2023/03/25 19:14:34;;;;;;;10.68;1.73;;;9.00;99.90;;;;;;4747552;30;20099;-81
2023/03/25 19:17:01;;;;;;;14.15;2.60;;;8.90;99.90;;;;;;4760155;30;20075;-85
2023/03/25 19:19:27;;;;;;;12.90;1.88;;;9.00;99.90;;;;;;4765492;30;20059;-84
2023/03/25 19:21:53;;;;;;;15.15;2.35;;;9.00;99.90;;;;;;4752325;30;20051;-84
2023/03/25 19:24:18;;;;;;;10.43;1.70;;;9.00;99.90;;;;;;4751817;30;20067;-86
2023/03/25 19:26:44;;;;;;;16.02;1.90;;;8.90;99.90;;;;;;4761480;30;20119;-84
2023/03/25 19:29:11;;;;;;;16.40;2.58;;;8.90;99.90;;;;;;4758554;30;20449;-82
2023/03/25 19:31:37;;;;;;;16.05;2.50;;;8.90;99.90;;;;;;4741390;30;20428;-83
2023/03/25 19:34:03;;;;;;;11.18;2.38;;;8.90;99.90;;;;;;4759808;30;20440;-84
2023/03/25 19:37:12;;;;;;;12.18;2.42;;;8.90;99.90;;;;;;4759452;30;20097;-83
2023/03/25 19:39:38;;;;;;;12.65;3.53;;;8.90;99.90;;;;;;4727503;30;20191;-83
2023/03/25 19:42:04;;;;;;;16.48;2.38;;;8.80;99.90;;;;;;4761168;30;20076;-83
2023/03/25 19:44:30;;;;;;;17.30;3.05;;;8.80;99.90;;;;;;4760210;30;20233;-83
2023/03/25 19:46:55;;;;;;;11.95;2.10;;;8.80;99.90;;;;;;4741037;30;20052;-82
2023/03/25 19:49:21;;;;;;;10.70;2.28;;;8.70;99.90;;;;;;4758899;29;20190;-83
2023/03/25 19:51:47;;;;;;;12.45;2.70;;;8.70;99.90;;;;;;4729359;30;20052;-83
2023/03/25 19:54:15;;;;;;;14.10;2.20;;;9.50;99.90;;;;;;4760729;30;20424;-83
2023/03/25 19:56:41;;;;;;;11.02;2.08;;;8.70;99.90;;;;;;4760509;30;20044;-84
2023/03/25 19:59:08;;;;;;;8.02;1.50;;;8.70;99.90;;;;;;4759519;30;20059;-85
2023/03/25 20:01:36;;;;;;;11.93;1.92;;;8.70;99.90;;;;;;4761292;30;20059;-82
2023/03/25 20:04:03;;;;;;;11.98;2.15;;;8.70;99.90;;;;;;4762409;30;20536;-82
2023/03/25 20:06:29;;;;;;;14.82;2.13;;;8.70;99.90;;;;;;4761937;30;20114;-81
2023/03/25 20:08:54;;;;;;;13.02;2.05;;;8.60;99.90;;;;;;4747056;30;20036;-81
2023/03/25 20:11:20;;;;;;;13.45;1.85;;;8.60;99.90;;;;;;4760782;30;20104;-83
2023/03/25 20:13:46;;;;;;;10.63;1.50;;;8.60;99.90;;;;;;4762205;30;20115;-84
2023/03/25 20:16:11;;;;;;;9.73;1.63;;;8.60;99.90;;;;;;4757778;30;20056;-83
2023/03/25 20:18:40;;;;;;;9.70;1.48;;;8.70;99.90;;;;;;4747049;30;20040;-83
2023/03/25 20:21:07;;;;;;;11.57;1.95;;;8.60;99.90;;;;;;4762581;30;20208;-83
2023/03/25 20:23:32;;;;;;;10.27;1.77;;;8.50;99.90;;;;;;4731482;30;20044;-82
2023/03/25 20:25:58;;;;;;;8.80;1.30;;;8.60;99.90;;;;;;4760990;30;20133;-82
2023/03/25 20:28:24;;;;;;;11.10;1.63;;;8.70;99.90;;;;;;4760676;30;20048;-82
2023/03/25 20:30:50;;;;;;;15.18;1.60;;;8.50;99.90;;;;;;4759954;30;20893;-82
2023/03/25 20:33:16;;;;;;;10.15;2.05;;;8.50;99.90;;;;;;4761202;30;20054;-82
2023/03/25 20:35:42;;;;;;;13.05;1.58;;;8.50;99.90;;;;;;4760812;30;20108;-82
2023/03/25 20:38:09;;;;;;;9.18;1.85;;;8.50;99.90;;;;;;4761229;30;20044;-83
2023/03/25 20:40:36;;;;;;;8.65;1.52;;;8.40;99.90;;;;;;4743419;30;20332;-84
2023/03/25 20:43:03;;;;;;;14.40;2.08;;;8.40;99.90;;;;;;4761415;30;20068;-83
2023/03/25 20:45:29;;;;;;;12.45;2.17;;;8.40;99.90;;;;;;4760824;30;20048;-84
2023/03/25 20:47:55;;;;;;;13.50;1.52;;;8.40;99.90;;;;;;4759798;30;20052;-83
2023/03/25 20:50:22;;;;;;;11.55;1.85;;;8.40;99.90;;;;;;4758827;30;20044;-84
2023/03/25 20:52:48;;;;;;;10.93;1.83;;;8.40;99.90;;;;;;4758986;30;20554;-84
2023/03/25 20:55:14;;;;;;;10.75;2.08;;;8.40;99.90;;;;;;4761570;30;20055;-84
2023/03/25 20:57:40;;;;;;;10.45;2.38;;;8.40;99.90;;;;;;4760302;30;20063;-83
2023/03/25 21:00:06;;;;;;;10.57;1.55;;;8.30;99.90;;;;;;4758942;30;20500;-84
2023/03/25 21:02:32;;;;;;;9.65;1.60;;;8.40;99.90;;;;;;4761229;30;20074;-84
2023/03/25 21:04:58;;;;;;;11.30;1.45;;;8.40;99.90;;;;;;4760017;30;20039;-83
2023/03/25 21:07:28;;;;;;;13.95;1.80;;;8.40;99.90;;;;;;4758034;30;20063;-84
2023/03/25 21:09:56;;;;;;;12.13;1.70;;;8.40;99.90;;;;;;4760523;30;20047;-84
2023/03/25 21:12:21;;;;;;;10.15;1.40;;;8.40;99.90;;;;;;4759635;30;20052;-84